Time;durP1;ratioP1;P1;durP2;ratioP2;P2;SDS_P1;SDS_P2;PMS_P1;PMS_P2;Temp;Humidity;BMP_temperature;BMP_pressure;BME280_temperature;BME280_humidity;BME280_pressure;Samples;Min_cycle;Max_cycle;Signal;HPM_P1;HPM_P2
2023/12/30 00:04:50;;;;;;;20.10;12.70;;;;;;;;;;10537314;28;20050;-65
2023/12/30 00:09:50;;;;;;;19.45;12.23;;;;;;;;;;10537333;28;20031;-65
2023/12/30 00:14:51;;;;;;;21.63;12.20;;;;;;;;;;10494106;28;20093;-65
2023/12/30 00:19:53;;;;;;;15.70;11.77;;;;;;;;;;10518772;28;20020;-65
2023/12/30 00:24:54;;;;;;;26.90;12.27;;;;;;;;;;10537212;28;20024;-65
2023/12/30 00:29:54;;;;;;;16.38;12.00;;;;;;;;;;10537035;28;20028;-65
2023/12/30 00:34:55;;;;;;;20.98;12.90;;;;;;;;;;10536855;28;20032;-65
2023/12/30 00:39:56;;;;;;;18.20;12.40;;;;;;;;;;10536620;28;20032;-65
2023/12/30 00:44:56;;;;;;;22.02;12.20;;;;;;;;;;10536666;28;20039;-65
2023/12/30 00:49:57;;;;;;;17.80;12.20;;;;;;;;;;10535717;28;20024;-65
2023/12/30 00:54:57;;;;;;;18.27;12.10;;;;;;;;;;10535660;28;20139;-65
2023/12/30 00:59:58;;;;;;;16.20;11.73;;;;;;;;;;10535654;28;20044;-65
2023/12/30 01:04:59;;;;;;;16.60;12.70;;;;;;;;;;10535519;28;20032;-65
2023/12/30 01:09:59;;;;;;;20.42;13.10;;;;;;;;;;10534926;28;20066;-65
2023/12/30 01:15:00;;;;;;;21.77;13.30;;;;;;;;;;10534275;28;20024;-65
2023/12/30 01:20:01;;;;;;;20.45;13.13;;;;;;;;;;10534371;28;20023;-63
2023/12/30 01:25:02;;;;;;;18.38;12.80;;;;;;;;;;10534921;28;20032;-64
2023/12/30 01:30:02;;;;;;;24.65;13.63;;;;;;;;;;10534677;28;20107;-67
2023/12/30 01:35:04;;;;;;;17.38;11.80;;;;;;;;;;10534210;28;20440;-66
2023/12/30 01:40:05;;;;;;;21.13;11.70;;;;;;;;;;10534364;28;20051;-67
2023/12/30 01:45:06;;;;;;;21.35;12.52;;;;;;;;;;10533855;28;20475;-67
2023/12/30 01:50:08;;;;;;;17.13;12.38;;;;;;;;;;10535109;28;20111;-66
2023/12/30 01:55:09;;;;;;;15.73;11.25;;;;;;;;;;10534274;28;20032;-66
2023/12/30 02:00:17;;;;;;;18.60;10.82;;;;;;;;;;10552454;22;20071;-57
2023/12/30 02:05:19;;;;;;;18.15;11.35;;;;;;;;;;10540943;28;20090;-58
2023/12/30 02:10:21;;;;;;;14.27;10.93;;;;;;;;;;10540770;28;20523;-58
2023/12/30 02:15:25;;;;;;;20.00;11.18;;;;;;;;;;10540629;28;20015;-58
2023/12/30 02:20:28;;;;;;;17.85;11.48;;;;;;;;;;10540858;28;20028;-58
2023/12/30 02:25:30;;;;;;;15.70;11.13;;;;;;;;;;10540165;28;20032;-58
2023/12/30 02:30:32;;;;;;;17.55;10.85;;;;;;;;;;10540042;28;20020;-59
2023/12/30 02:35:33;;;;;;;21.88;11.93;;;;;;;;;;10540039;28;20085;-58
2023/12/30 02:40:35;;;;;;;18.02;11.07;;;;;;;;;;10540009;28;20356;-58
2023/12/30 02:45:37;;;;;;;14.63;10.88;;;;;;;;;;10539741;28;20081;-58
2023/12/30 02:50:39;;;;;;;15.75;10.45;;;;;;;;;;10521665;28;20451;-58
2023/12/30 02:55:40;;;;;;;17.70;10.82;;;;;;;;;;10539665;28;20024;-58
2023/12/30 03:00:41;;;;;;;16.92;10.57;;;;;;;;;;10539494;28;20126;-56
2023/12/30 03:05:43;;;;;;;14.82;10.48;;;;;;;;;;10539401;28;20107;-57
2023/12/30 03:10:45;;;;;;;16.48;10.52;;;;;;;;;;10539240;28;20028;-58
2023/12/30 03:15:47;;;;;;;12.68;9.98;;;;;;;;;;10539204;28;20020;-58
2023/12/30 03:20:48;;;;;;;14.77;10.23;;;;;;;;;;10539012;28;20032;-58
2023/12/30 03:25:51;;;;;;;14.50;9.48;;;;;;;;;;10539026;28;20478;-59
2023/12/30 03:30:53;;;;;;;12.43;9.30;;;;;;;;;;10520923;28;20020;-60
2023/12/30 03:35:55;;;;;;;14.60;9.73;;;;;;;;;;10538699;28;20039;-60
2023/12/30 03:40:57;;;;;;;14.00;9.32;;;;;;;;;;10538569;28;20032;-60
2023/12/30 03:45:58;;;;;;;13.93;9.90;;;;;;;;;;10538478;28;20028;-60
2023/12/30 03:51:00;;;;;;;18.83;10.35;;;;;;;;;;10538560;28;20032;-60
2023/12/30 03:56:02;;;;;;;12.98;9.80;;;;;;;;;;10538420;28;20020;-61
2023/12/30 04:01:05;;;;;;;14.75;9.27;;;;;;;;;;10544790;28;20105;-61
2023/12/30 04:06:15;;;;;;;12.90;9.52;;;;;;;;;;10546323;28;20032;-60
2023/12/30 04:11:17;;;;;;;15.52;10.13;;;;;;;;;;10528534;28;20024;-60
2023/12/30 04:16:19;;;;;;;14.73;10.02;;;;;;;;;;10545350;28;20048;-60
2023/12/30 04:21:20;;;;;;;18.30;10.07;;;;;;;;;;10545033;28;20038;-61
2023/12/30 04:26:22;;;;;;;17.77;9.13;;;;;;;;;;10545485;28;20070;-60
2023/12/30 04:31:24;;;;;;;13.77;10.00;;;;;;;;;;10544656;28;20408;-60
2023/12/30 04:36:26;;;;;;;12.95;9.48;;;;;;;;;;10544505;28;20024;-61
2023/12/30 04:41:28;;;;;;;16.65;9.15;;;;;;;;;;10544300;28;20107;-60
2023/12/30 04:46:30;;;;;;;17.35;9.43;;;;;;;;;;10543962;28;20020;-60
2023/12/30 04:51:31;;;;;;;12.70;8.68;;;;;;;;;;10543993;28;20028;-60
2023/12/30 04:56:33;;;;;;;11.30;8.57;;;;;;;;;;10543767;28;20028;-60
2023/12/30 05:01:34;;;;;;;11.73;8.50;;;;;;;;;;10543261;28;20498;-61
2023/12/30 05:06:36;;;;;;;12.27;8.48;;;;;;;;;;10543965;28;20030;-60
2023/12/30 05:11:44;;;;;;;10.00;8.05;;;;;;;;;;10541808;28;20036;-60
2023/12/30 05:16:46;;;;;;;12.75;8.95;;;;;;;;;;10542925;28;20043;-60
2023/12/30 05:21:51;;;;;;;12.38;8.57;;;;;;;;;;10542603;28;20471;-60
2023/12/30 05:26:53;;;;;;;12.90;8.23;;;;;;;;;;10543078;28;20027;-60
2023/12/30 05:31:55;;;;;;;12.77;8.80;;;;;;;;;;10542195;28;20024;-60
2023/12/30 05:36:56;;;;;;;13.13;8.15;;;;;;;;;;10542106;28;20499;-59
2023/12/30 05:41:58;;;;;;;10.65;8.20;;;;;;;;;;10541791;28;20024;-60
2023/12/30 05:47:00;;;;;;;11.13;8.25;;;;;;;;;;10542255;28;20024;-60
2023/12/30 05:52:02;;;;;;;10.48;7.93;;;;;;;;;;10542044;28;20028;-60
2023/12/30 05:57:04;;;;;;;10.50;7.90;;;;;;;;;;10541963;28;20024;-60
2023/12/30 06:02:06;;;;;;;11.93;7.90;;;;;;;;;;10540849;28;20048;-59
2023/12/30 06:07:08;;;;;;;11.85;8.07;;;;;;;;;;10541532;28;20028;-61
2023/12/30 06:12:10;;;;;;;12.32;7.95;;;;;;;;;;10540687;28;20494;-60
2023/12/30 06:17:12;;;;;;;11.93;8.18;;;;;;;;;;10540668;28;20051;-60
2023/12/30 06:22:14;;;;;;;14.00;8.50;;;;;;;;;;10540097;28;20032;-61
2023/12/30 06:27:15;;;;;;;11.35;7.88;;;;;;;;;;10540262;28;20034;-61
2023/12/30 06:32:16;;;;;;;10.15;7.80;;;;;;;;;;10540723;28;20375;-61
2023/12/30 06:37:18;;;;;;;10.63;7.70;;;;;;;;;;10539883;28;20047;-61
2023/12/30 06:42:20;;;;;;;11.43;8.27;;;;;;;;;;10540442;28;20031;-61
2023/12/30 06:47:21;;;;;;;10.93;8.10;;;;;;;;;;10539746;28;20052;-61
2023/12/30 06:52:23;;;;;;;11.23;7.70;;;;;;;;;;10539751;28;20028;-61
2023/12/30 06:57:25;;;;;;;10.82;7.32;;;;;;;;;;10539599;28;20020;-60
2023/12/30 07:02:26;;;;;;;9.68;7.35;;;;;;;;;;10539155;28;20060;-58
2023/12/30 07:07:28;;;;;;;8.57;7.25;;;;;;;;;;10539341;28;20081;-61
2023/12/30 07:12:29;;;;;;;12.55;7.38;;;;;;;;;;10539396;28;20085;-60
2023/12/30 07:17:31;;;;;;;8.90;7.00;;;;;;;;;;10539213;28;20025;-58
2023/12/30 07:22:32;;;;;;;9.25;7.60;;;;;;;;;;10539610;28;20115;-60
2023/12/30 07:27:34;;;;;;;10.30;7.38;;;;;;;;;;10538949;28;20047;-60
2023/12/30 07:32:37;;;;;;;12.50;7.15;;;;;;;;;;10540422;28;20208;-60
2023/12/30 07:37:38;;;;;;;8.82;7.20;;;;;;;;;;10547423;28;20020;-60
2023/12/30 07:42:40;;;;;;;8.45;6.88;;;;;;;;;;10546651;28;20032;-60
2023/12/30 07:47:41;;;;;;;10.48;7.45;;;;;;;;;;10546936;28;20028;-59
2023/12/30 07:52:43;;;;;;;8.40;7.00;;;;;;;;;;10546863;28;20099;-59
2023/12/30 07:57:45;;;;;;;10.02;7.18;;;;;;;;;;10546673;28;20028;-59
2023/12/30 08:02:47;;;;;;;7.57;6.20;;;;;;;;;;10545666;28;20513;-60
2023/12/30 08:07:48;;;;;;;9.18;6.80;;;;;;;;;;10545544;28;20114;-60
2023/12/30 08:12:50;;;;;;;11.18;7.00;;;;;;;;;;10545416;28;20059;-61
2023/12/30 08:17:51;;;;;;;9.60;6.93;;;;;;;;;;10544511;28;20408;-58
2023/12/30 08:22:51;;;;;;;8.45;7.15;;;;;;;;;;10538304;28;20085;-61
2023/12/30 08:27:52;;;;;;;9.38;6.70;;;;;;;;;;10538055;28;20031;-61
2023/12/30 08:32:53;;;;;;;8.45;6.60;;;;;;;;;;10538119;28;20073;-60
2023/12/30 08:37:57;;;;;;;8.90;6.40;;;;;;;;;;10537642;28;20028;-60
2023/12/30 08:42:58;;;;;;;8.07;6.43;;;;;;;;;;10536694;28;20032;-60
2023/12/30 08:47:58;;;;;;;8.55;6.10;;;;;;;;;;10536305;28;20020;-61
2023/12/30 08:52:59;;;;;;;7.05;6.13;;;;;;;;;;10536080;28;20039;-60
2023/12/30 08:58:00;;;;;;;19.10;6.68;;;;;;;;;;10535763;28;20509;-60
2023/12/30 09:03:01;;;;;;;8.20;6.28;;;;;;;;;;10536237;28;20035;-60
2023/12/30 09:08:04;;;;;;;11.20;6.70;;;;;;;;;;10536003;28;20081;-59
2023/12/30 09:13:04;;;;;;;9.75;6.38;;;;;;;;;;10517823;28;20482;-60
2023/12/30 09:18:05;;;;;;;10.32;6.32;;;;;;;;;;10535737;28;20032;-60
2023/12/30 09:23:05;;;;;;;8.23;6.22;;;;;;;;;;10535666;28;20398;-60
2023/12/30 09:28:06;;;;;;;6.97;6.15;;;;;;;;;;10535233;28;20028;-60
2023/12/30 09:33:07;;;;;;;8.00;6.50;;;;;;;;;;10535791;28;20035;-58
2023/12/30 09:38:07;;;;;;;16.67;7.05;;;;;;;;;;10535519;28;20467;-60
2023/12/30 09:43:10;;;;;;;6.95;6.20;;;;;;;;;;10535020;28;20432;-60
2023/12/30 09:48:12;;;;;;;8.98;6.38;;;;;;;;;;10516705;28;20024;-59
2023/12/30 09:53:12;;;;;;;8.68;6.22;;;;;;;;;;10515139;28;20031;-60
2023/12/30 09:58:13;;;;;;;7.95;6.75;;;;;;;;;;10533872;28;20055;-60
2023/12/30 10:03:14;;;;;;;10.95;7.45;;;;;;;;;;10534104;28;20028;-58
2023/12/30 10:08:15;;;;;;;11.05;7.97;;;;;;;;;;10534728;28;20024;-60
2023/12/30 10:13:21;;;;;;;14.82;8.18;;;;;;;;;;10534010;28;20028;-59
2023/12/30 10:18:22;;;;;;;11.80;8.60;;;;;;;;;;10515184;28;20494;-59
2023/12/30 10:23:24;;;;;;;16.83;9.27;;;;;;;;;;10533446;28;20031;-57
2023/12/30 10:28:24;;;;;;;21.50;8.23;;;;;;;;;;10533171;28;20028;-59
2023/12/30 10:33:25;;;;;;;12.95;9.48;;;;;;;;;;10513625;28;20024;-58
2023/12/30 10:38:26;;;;;;;13.38;9.57;;;;;;;;;;10531280;28;20047;-59
2023/12/30 10:43:27;;;;;;;17.48;11.13;;;;;;;;;;10526364;28;20466;-58
2023/12/30 10:48:34;;;;;;;18.10;10.82;;;;;;;;;;10532396;28;20020;-60
2023/12/30 10:53:39;;;;;;;13.73;10.32;;;;;;;;;;10532302;28;20024;-59
2023/12/30 10:58:40;;;;;;;20.60;11.38;;;;;;;;;;10532418;28;20055;-59
2023/12/30 11:03:42;;;;;;;15.27;10.38;;;;;;;;;;10531450;28;20031;-60
2023/12/30 11:08:44;;;;;;;14.57;10.18;;;;;;;;;;10535447;28;20024;-60
2023/12/30 11:13:46;;;;;;;19.42;10.38;;;;;;;;;;10540673;28;20036;-57
2023/12/30 11:18:53;;;;;;;15.05;9.02;;;;;;;;;;10540698;28;20028;-55
2023/12/30 11:24:03;;;;;;;18.02;9.90;;;;;;;;;;10538849;28;20028;-57
2023/12/30 11:29:04;;;;;;;12.43;9.38;;;;;;;;;;10540361;28;20093;-59
2023/12/30 11:34:05;;;;;;;12.70;9.43;;;;;;;;;;10540345;28;20081;-56
2023/12/30 11:39:07;;;;;;;15.05;9.68;;;;;;;;;;10539510;28;20134;-56
2023/12/30 11:44:07;;;;;;;13.65;9.20;;;;;;;;;;10539163;28;20438;-58
2023/12/30 11:49:08;;;;;;;11.50;8.63;;;;;;;;;;10540046;28;20047;-57
2023/12/30 11:54:08;;;;;;;13.82;8.88;;;;;;;;;;10534708;28;20025;-58
2023/12/30 11:59:13;;;;;;;10.63;9.40;;;;;;;;;;10538291;28;20036;-59
2023/12/30 12:04:13;;;;;;;14.43;9.48;;;;;;;;;;10538432;28;20059;-59
2023/12/30 12:09:14;;;;;;;12.10;9.05;;;;;;;;;;10538408;28;20024;-58
2023/12/30 12:14:15;;;;;;;12.95;8.98;;;;;;;;;;10537267;28;20032;-60
2023/12/30 12:19:16;;;;;;;13.73;8.68;;;;;;;;;;10537597;28;20035;-60
2023/12/30 12:24:17;;;;;;;14.25;9.25;;;;;;;;;;10537625;28;20482;-60
2023/12/30 12:29:17;;;;;;;10.32;8.77;;;;;;;;;;10537586;28;20383;-60
2023/12/30 12:34:25;;;;;;;11.30;8.35;;;;;;;;;;10536634;28;20024;-60
2023/12/30 12:39:26;;;;;;;13.80;8.85;;;;;;;;;;10536478;28;20366;-59
2023/12/30 12:44:26;;;;;;;12.52;8.93;;;;;;;;;;10536495;28;20031;-60
2023/12/30 12:49:27;;;;;;;15.68;9.23;;;;;;;;;;10536354;28;20032;-60
2023/12/30 12:54:29;;;;;;;11.77;8.82;;;;;;;;;;10536291;28;20114;-59
2023/12/30 12:59:29;;;;;;;16.92;8.93;;;;;;;;;;10531945;28;20083;-59
2023/12/30 13:04:30;;;;;;;13.02;8.93;;;;;;;;;;10536174;28;20086;-60
2023/12/30 13:14:58;;;;;;;12.00;8.95;;;;;;;;;;10518676;28;20181;-59
2023/12/30 13:19:59;;;;;;;13.43;9.75;;;;;;;;;;10535795;28;20255;-59
2023/12/30 13:25:00;;;;;;;15.10;9.57;;;;;;;;;;10533220;28;20571;-58
2023/12/30 13:30:01;;;;;;;12.20;9.63;;;;;;;;;;10533032;28;20027;-59
2023/12/30 13:35:02;;;;;;;10.77;8.18;;;;;;;;;;10534750;28;20111;-58
2023/12/30 13:40:09;;;;;;;12.00;8.98;;;;;;;;;;10533956;28;20107;-58
2023/12/30 13:45:10;;;;;;;12.03;8.90;;;;;;;;;;10533894;28;20463;-58
2023/12/30 13:50:18;;;;;;;11.50;8.95;;;;;;;;;;10534742;28;20043;-60
2023/12/30 13:55:21;;;;;;;11.77;8.70;;;;;;;;;;10532456;28;20032;-58
2023/12/30 14:00:21;;;;;;;16.60;8.85;;;;;;;;;;10511943;28;20127;-60
2023/12/30 14:05:31;;;;;;;18.55;9.48;;;;;;;;;;10528075;28;20453;-59
2023/12/30 14:10:33;;;;;;;15.00;8.82;;;;;;;;;;10533505;28;20024;-59
2023/12/30 14:15:34;;;;;;;13.45;8.98;;;;;;;;;;10534013;28;20101;-59
2023/12/30 14:20:35;;;;;;;12.60;9.07;;;;;;;;;;10533369;28;20028;-59
2023/12/30 14:25:36;;;;;;;14.68;9.05;;;;;;;;;;10533477;28;20032;-59
2023/12/30 14:30:36;;;;;;;12.15;8.95;;;;;;;;;;10532640;28;20097;-59
2023/12/30 14:35:37;;;;;;;12.70;9.63;;;;;;;;;;10532203;28;20024;-59
2023/12/30 14:40:37;;;;;;;17.67;9.45;;;;;;;;;;10532292;28;20035;-59
2023/12/30 14:45:38;;;;;;;11.85;9.15;;;;;;;;;;10532918;28;20024;-59
2023/12/30 14:50:39;;;;;;;12.27;9.40;;;;;;;;;;10532053;28;20479;-59
2023/12/30 14:55:39;;;;;;;12.25;10.00;;;;;;;;;;10531262;28;20486;-58
2023/12/30 15:00:40;;;;;;;12.50;9.27;;;;;;;;;;10531678;28;20044;-59
2023/12/30 15:05:41;;;;;;;14.68;10.27;;;;;;;;;;10528346;28;20024;-59
2023/12/30 15:10:42;;;;;;;17.50;10.23;;;;;;;;;;10531701;28;20085;-59
2023/12/30 15:15:42;;;;;;;16.23;11.68;;;;;;;;;;10531936;28;20085;-58
2023/12/30 15:20:43;;;;;;;15.95;10.77;;;;;;;;;;10533213;28;20028;-59
2023/12/30 15:25:44;;;;;;;18.33;10.98;;;;;;;;;;10532374;28;20028;-58
2023/12/30 15:30:44;;;;;;;14.43;10.45;;;;;;;;;;10531247;28;20032;-57
2023/12/30 15:35:45;;;;;;;16.27;11.32;;;;;;;;;;10531767;28;20256;-57
2023/12/30 15:40:46;;;;;;;16.15;11.65;;;;;;;;;;10531432;28;20036;-57
2023/12/30 15:45:47;;;;;;;18.50;12.77;;;;;;;;;;10530819;28;20028;-57
2023/12/30 15:50:48;;;;;;;17.25;11.98;;;;;;;;;;10530242;28;20028;-56
2023/12/30 15:55:49;;;;;;;17.33;12.02;;;;;;;;;;10534448;28;20027;-56
2023/12/30 16:00:49;;;;;;;20.08;11.77;;;;;;;;;;10536177;28;20052;-58
2023/12/30 16:05:50;;;;;;;19.45;12.43;;;;;;;;;;10538303;28;20471;-56
2023/12/30 16:10:51;;;;;;;17.27;12.73;;;;;;;;;;10537136;28;20036;-58
2023/12/30 16:15:52;;;;;;;16.70;12.07;;;;;;;;;;10538661;28;20020;-56
2023/12/30 16:20:53;;;;;;;18.85;12.90;;;;;;;;;;10520527;28;20034;-58
2023/12/30 16:25:54;;;;;;;18.73;12.30;;;;;;;;;;10537899;28;20474;-58
2023/12/30 16:30:54;;;;;;;18.67;12.88;;;;;;;;;;10519578;28;20016;-55
2023/12/30 16:35:55;;;;;;;18.25;12.07;;;;;;;;;;10537576;28;20048;-54
2023/12/30 16:40:56;;;;;;;18.83;12.52;;;;;;;;;;10537269;28;20035;-57
2023/12/30 16:45:56;;;;;;;17.80;13.35;;;;;;;;;;10537321;28;20494;-54
2023/12/30 16:50:57;;;;;;;17.92;12.38;;;;;;;;;;10519115;28;20031;-55
2023/12/30 16:56:00;;;;;;;18.05;13.13;;;;;;;;;;10537463;28;20418;-55
2023/12/30 17:01:01;;;;;;;18.35;13.10;;;;;;;;;;10536046;28;20047;-56
2023/12/30 17:06:03;;;;;;;17.45;12.82;;;;;;;;;;10536098;28;20024;-54
2023/12/30 17:11:03;;;;;;;19.52;13.50;;;;;;;;;;10536165;28;20031;-54
2023/12/30 17:16:04;;;;;;;19.58;13.32;;;;;;;;;;10535987;28;20031;-55
2023/12/30 17:21:05;;;;;;;19.45;13.35;;;;;;;;;;10536291;28;20024;-58
2023/12/30 17:26:06;;;;;;;17.13;12.90;;;;;;;;;;10534939;28;20036;-55
2023/12/30 17:31:08;;;;;;;20.20;13.52;;;;;;;;;;10535434;28;20028;-56
2023/12/30 17:36:08;;;;;;;19.23;13.13;;;;;;;;;;10534889;28;20058;-56
2023/12/30 17:41:09;;;;;;;22.58;15.05;;;;;;;;;;10533717;28;20386;-55
2023/12/30 17:46:10;;;;;;;18.02;13.88;;;;;;;;;;10533726;28;20112;-55
2023/12/30 17:51:10;;;;;;;19.25;14.25;;;;;;;;;;10534849;28;20031;-55
2023/12/30 17:56:11;;;;;;;19.63;13.55;;;;;;;;;;10533491;28;20107;-58
2023/12/30 18:01:11;;;;;;;22.15;12.85;;;;;;;;;;10532237;28;20130;-55
2023/12/30 18:06:12;;;;;;;16.42;11.82;;;;;;;;;;10534509;28;20305;-57
2023/12/30 18:11:14;;;;;;;14.82;11.35;;;;;;;;;;10533973;28;20044;-54
2023/12/30 18:16:15;;;;;;;15.48;11.50;;;;;;;;;;10533037;28;20024;-55
2023/12/30 18:21:16;;;;;;;17.17;11.88;;;;;;;;;;10533288;28;20059;-54
2023/12/30 18:26:16;;;;;;;15.63;9.90;;;;;;;;;;10533053;28;20069;-60
2023/12/30 18:31:17;;;;;;;15.35;9.05;;;;;;;;;;10533300;28;20027;-55
2023/12/30 18:36:17;;;;;;;15.30;10.57;;;;;;;;;;10531697;28;20043;-54
2023/12/30 18:41:18;;;;;;;12.80;9.35;;;;;;;;;;10531242;28;20479;-57
2023/12/30 18:46:18;;;;;;;14.05;9.98;;;;;;;;;;10531404;28;20390;-52
2023/12/30 18:51:19;;;;;;;13.60;9.70;;;;;;;;;;10531678;28;20420;-54
2023/12/30 18:56:19;;;;;;;11.98;9.30;;;;;;;;;;10532647;28;20193;-54
2023/12/30 19:01:20;;;;;;;14.65;11.27;;;;;;;;;;10530166;28;20051;-58
2023/12/30 19:06:21;;;;;;;18.25;12.80;;;;;;;;;;10532512;28;20453;-57
2023/12/30 19:11:22;;;;;;;17.65;13.27;;;;;;;;;;10530840;28;20024;-58
2023/12/30 19:16:22;;;;;;;23.25;15.02;;;;;;;;;;10531411;28;20047;-59
2023/12/30 19:21:23;;;;;;;23.17;15.27;;;;;;;;;;10531480;28;20042;-59
2023/12/30 19:26:24;;;;;;;21.52;15.75;;;;;;;;;;10531166;28;20540;-54
2023/12/30 19:31:24;;;;;;;25.77;16.67;;;;;;;;;;10535588;28;20093;-57
2023/12/30 19:36:25;;;;;;;23.88;15.43;;;;;;;;;;10539253;28;20020;-55
2023/12/30 19:41:26;;;;;;;46.22;17.75;;;;;;;;;;10538627;28;20032;-54
2023/12/30 19:46:26;;;;;;;36.90;16.20;;;;;;;;;;10539078;28;20032;-54
2023/12/30 19:51:27;;;;;;;24.15;15.18;;;;;;;;;;10539334;28;20459;-56
2023/12/30 19:56:28;;;;;;;29.67;17.55;;;;;;;;;;10538633;28;20032;-58
2023/12/30 20:01:30;;;;;;;31.60;17.27;;;;;;;;;;10538478;28;20040;-54
2023/12/30 20:06:31;;;;;;;29.23;16.45;;;;;;;;;;10538368;28;20329;-55
2023/12/30 20:11:31;;;;;;;39.13;18.60;;;;;;;;;;10538587;28;20289;-58
2023/12/30 20:16:32;;;;;;;36.67;16.98;;;;;;;;;;10538095;28;20028;-57
2023/12/30 20:21:32;;;;;;;32.10;17.02;;;;;;;;;;10538415;28;20035;-56
2023/12/30 20:26:33;;;;;;;32.83;16.88;;;;;;;;;;10538027;28;20073;-54
2023/12/30 20:31:35;;;;;;;34.97;16.48;;;;;;;;;;10537300;28;20032;-58
2023/12/30 20:36:36;;;;;;;40.42;16.70;;;;;;;;;;10537338;28;20321;-56
2023/12/30 20:41:40;;;;;;;37.17;17.45;;;;;;;;;;10537256;28;20063;-57
2023/12/30 20:46:42;;;;;;;35.42;16.25;;;;;;;;;;10537178;28;20368;-58
2023/12/30 20:51:52;;;;;;;30.77;15.85;;;;;;;;;;10536686;28;20027;-56
2023/12/30 20:56:52;;;;;;;24.88;15.10;;;;;;;;;;10536694;28;20020;-58
2023/12/30 21:01:54;;;;;;;27.23;14.85;;;;;;;;;;10536094;28;20044;-58
2023/12/30 21:06:54;;;;;;;33.80;15.93;;;;;;;;;;10536291;28;20028;-58
2023/12/30 21:11:55;;;;;;;28.92;15.80;;;;;;;;;;10535931;28;20031;-58
2023/12/30 21:16:56;;;;;;;27.80;15.25;;;;;;;;;;10536293;28;20034;-56
2023/12/30 21:22:00;;;;;;;26.52;14.65;;;;;;;;;;10535570;28;20036;-58
2023/12/30 21:27:02;;;;;;;26.17;13.88;;;;;;;;;;10536384;28;20081;-56
2023/12/30 21:32:03;;;;;;;34.85;15.27;;;;;;;;;;10535174;28;20027;-58
2023/12/30 21:37:04;;;;;;;35.40;18.33;;;;;;;;;;10534413;28;20031;-58
2023/12/30 21:42:05;;;;;;;26.58;18.27;;;;;;;;;;10533978;28;20035;-57
2023/12/30 21:47:05;;;;;;;31.95;18.90;;;;;;;;;;10533605;28;20051;-57
2023/12/30 21:52:07;;;;;;;29.98;17.60;;;;;;;;;;10534268;28;20031;-55
2023/12/30 21:57:09;;;;;;;30.05;18.17;;;;;;;;;;10533377;28;20048;-58
2023/12/30 22:02:10;;;;;;;35.45;17.23;;;;;;;;;;10533690;28;20075;-56
2023/12/30 22:07:10;;;;;;;27.35;16.92;;;;;;;;;;10534165;28;20048;-57
2023/12/30 22:12:11;;;;;;;25.92;16.65;;;;;;;;;;10534128;28;20024;-57
2023/12/30 22:17:12;;;;;;;26.58;16.88;;;;;;;;;;10533973;28;20039;-57
2023/12/30 22:22:13;;;;;;;27.63;16.95;;;;;;;;;;10533298;28;20031;-55
2023/12/30 22:27:13;;;;;;;31.05;17.98;;;;;;;;;;10533163;28;20028;-56
2023/12/30 22:32:14;;;;;;;25.70;16.48;;;;;;;;;;10532960;28;20028;-58
2023/12/30 22:37:14;;;;;;;25.60;16.73;;;;;;;;;;10533366;28;20042;-56
2023/12/30 22:42:15;;;;;;;26.92;17.23;;;;;;;;;;10532728;28;20032;-56
2023/12/30 22:47:15;;;;;;;24.15;16.60;;;;;;;;;;10532589;28;20034;-56
2023/12/30 22:52:16;;;;;;;22.00;15.98;;;;;;;;;;10532926;28;20569;-56
2023/12/30 22:57:17;;;;;;;24.85;16.90;;;;;;;;;;10532329;28;20475;-58
2023/12/30 23:02:17;;;;;;;27.05;17.30;;;;;;;;;;10534126;28;20395;-57
2023/12/30 23:07:18;;;;;;;26.60;17.60;;;;;;;;;;10546692;28;20259;-55
2023/12/30 23:12:19;;;;;;;26.30;16.23;;;;;;;;;;10546596;28;20024;-56
2023/12/30 23:17:19;;;;;;;25.67;16.42;;;;;;;;;;10545849;28;20020;-55
2023/12/30 23:22:20;;;;;;;25.55;14.95;;;;;;;;;;10546247;28;20109;-56
2023/12/30 23:27:20;;;;;;;22.58;16.00;;;;;;;;;;10546672;28;20043;-58
2023/12/30 23:32:21;;;;;;;23.88;16.42;;;;;;;;;;10543688;28;20032;-55
2023/12/30 23:37:22;;;;;;;23.35;16.02;;;;;;;;;;10543507;28;20378;-56
2023/12/30 23:42:22;;;;;;;28.85;16.45;;;;;;;;;;10545041;28;20031;-59
2023/12/30 23:47:23;;;;;;;19.08;14.52;;;;;;;;;;10544581;28;20105;-58
2023/12/30 23:52:24;;;;;;;26.13;15.30;;;;;;;;;;10544704;28;20023;-58
2023/12/30 23:57:24;;;;;;;33.60;14.98;;;;;;;;;;10544730;28;20077;-56
